Silvianopolis, Brazil
Current Conditions -  °F | °C
As of 2:00 PM on Saturday 25 Oct 2014 (Local Time) from SBGW Reporting Station
Broken Clouds Broken Clouds  
Wind Chill: 77°   Ceiling: 10000
Heat Index: 79°   Visibility: 5mi
Dew Point: 64°   Wind: 2mph
Humidity: 65%   Direction: NA
Pressure: 29.97"   Gusts: NA
Location:  22.03°S, 45.83°W
Report Text: SBGW 251600Z VRB02KT 8000 SCT030 BKN100 25/18 Q1015
Loading
Personal Weather Stations






























Interactive Weather Map
Tropical Storm Tracking
New forecast layout! Learn more

10-Day Weather Forecast

Advertisements
Track Severe Weather on mobile